D/T METAR WX W/DIR W/SPE G/SPE TEMP DEWP
20/06/19 15:20 EGKA 201420Z 22018KT 9999 FEW025 18/12 Q1014 SW (220°) 20.7mph 18°C 12°C
20/06/19 14:50 EGKA 201350Z 22018KT 9999 FEW020 18/13 Q1014 SW (220°) 20.7mph 18°C 13°C
20/06/19 14:20 EGKA 201320Z 22016KT 9999 FEW020 16/12 Q1014 SW (220°) 18.4mph 16°C 12°C
20/06/19 13:50 EGKA 201250Z 22018KT 9999 SCT021 16/12 Q1014 SW (220°) 20.7mph 16°C 12°C
20/06/19 13:20 EGKA 201220Z 22019KT 9999 FEW021 18/12 Q1014 SW (220°) 21.9mph 18°C 12°C
20/06/19 12:50 EGKA 201150Z 23017KT 9999 SCT021 18/13 Q1014 SW (230°) 19.6mph 18°C 13°C
20/06/19 11:50 EGKA 201050Z 24013KT 9999 FEW015 SCT020 15/12 Q1013 WSW (240°) 15.0mph 15°C 12°C
20/06/19 10:50 EGKA 200950Z 24015KT 9999 SCT020 17/11 Q1013 WSW (240°) 17.3mph 17°C 11°C
20/06/19 10:20 EGKA 200920Z 25013KT 9999 SCT024 17/12 Q1013 WSW (250°) 15.0mph 17°C 12°C
20/06/19 09:50 EGKA 200850Z 25011KT 9999 FEW012 16/10 Q1013 WSW (250°) 12.7mph 16°C 10°C
20/06/19 09:20 EGKA 200820Z 26010KT 9999 FEW012 16/11 Q1013 W (260°) 11.5mph 16°C 11°C
20/06/19 08:50 EGKA 200750Z 25009KT 9999 FEW012 16/11 Q1012 WSW (250°) 10.4mph 16°C 11°C
20/06/19 08:20 EGKA 200720Z 27007KT 9999 FEW012 15/11 Q1012 W (270°) 8.1mph 15°C 11°C
20/06/19 07:20 EGKA 200620Z 27006KT 9999 FEW012 13/11 Q1012 W (270°) 6.9mph 13°C 11°C
19/06/19 19:50 EGKA 191850Z 24011KT 9999 6000N VCSH FEW018 16/14 Q1008 VCSH WSW (240°) 12.7mph 16°C 14°C
19/06/19 19:20 EGKA 191820Z 24014KT 9999 VCSH FEW018 17/14 Q1008 VCSH WSW (240°) 16.1mph 17°C 14°C
19/06/19 18:50 EGKA 191750Z 24013KT 9999 FEW022 17/14 Q1008 WSW (240°) 15.0mph 17°C 14°C
19/06/19 18:20 EGKA 191720Z 23009KT 9999 FEW020 18/15 Q1008 SW (230°) 10.4mph 18°C 15°C
19/06/19 17:20 EGKA 191620Z 23008KT 9999 FEW020 18/15 Q1008 SW (230°) 9.2mph 18°C 15°C
19/06/19 16:50 EGKA 191550Z 22012KT 9999 VCSH FEW024 18/15 Q1008 VCSH SW (220°) 13.8mph 18°C 15°C
19/06/19 16:20 EGKA 191520Z 26003KT 9999 FEW025 20/14 Q1008 W (260°) 3.5mph 20°C 14°C
19/06/19 15:50 EGKA 191450Z 28004KT 9999 FEW020 20/15 Q1008 W (280°) 4.6mph 20°C 15°C
19/06/19 15:20 EGKA 191420Z 28006KT 9999 FEW020 19/15 Q1008 W (280°) 6.9mph 19°C 15°C
19/06/19 14:50 EGKA 191350Z 30006KT 9999 FEW020 19/15 Q1008 WNW (300°) 6.9mph 19°C 15°C
19/06/19 14:20 EGKA 191320Z 30006KT 9999 SCT020 20/15 Q1008 WNW (300°) 6.9mph 20°C 15°C
19/06/19 13:50 EGKA 191250Z 30005KT 9999 SCT020 19/15 Q1008 WNW (300°) 5.8mph 19°C 15°C
19/06/19 13:20 EGKA 191220Z 30005KT 9999 SCT020 20/15 Q1008 WNW (300°) 5.8mph 20°C 15°C
19/06/19 12:50 EGKA 191150Z 34006KT 9999 FEW018 19/15 Q1007 NNW (340°) 6.9mph 19°C 15°C
19/06/19 12:20 EGKA 191120Z 33005KT 9999 FEW022 18/15 Q1007 NNW (330°) 5.8mph 18°C 15°C
19/06/19 11:50 EGKA 191050Z 32006KT 9999 FEW009 18/15 Q1007 NW (320°) 6.9mph 18°C 15°C
19/06/19 10:50 EGKA 190950Z 31003KT 9999 FEW009 17/15 Q1007 NW (310°) 3.5mph 17°C 15°C
19/06/19 10:20 EGKA 190920Z 34008KT 9999 FEW018 16/15 Q1007 NNW (340°) 9.2mph 16°C 15°C
19/06/19 09:50 EGKA 190850Z 35008KT 9000 FEW009 SCT042 16/15 Q1007 N (350°) 9.2mph 16°C 15°C
19/06/19 09:20 EGKA 190820Z 35009KT 9000 FEW009 SCT042 16/15 Q1007 N (350°) 10.4mph 16°C 15°C
19/06/19 08:50 EGKA 190750Z 34009KT 8000 FEW006 SCT040 15/14 Q1007 NNW (340°) 10.4mph 15°C 14°C
19/06/19 08:20 EGKA 190720Z 33009KT 8000 FEW040 14/14 Q1006 NNW (330°) 10.4mph 14°C 14°C
19/06/19 07:50 EGKA 190650Z 35008KT 8000 -SHRA SCT040 14/13 Q1006 -SHRA N (350°) 9.2mph 14°C 13°C
19/06/19 07:20 EGKA 190620Z 01006KT 8000 -SHRA SCT040 14/13 Q1007 -SHRA N (10°) 6.9mph 14°C 13°C
18/06/19 19:50 EGKA 181850Z 36019KT 9999 FEW045 17/16 Q1010 N (360°) 21.9mph 17°C 16°C
18/06/19 19:20 EGKA 181820Z 36009KT 9999 FEW045 17/16 Q1010 N (360°) 10.4mph 17°C 16°C
18/06/19 18:20 EGKA 181720Z 36009KT 9999 FEW040 17/16 Q1010 RESHRA N (360°) 10.4mph 17°C 16°C
18/06/19 17:50 EGKA 181650Z 35010KT 9000 SHRA FEW040 17/16 Q1011 SHRA N (350°) 11.5mph 17°C 16°C
18/06/19 17:20 EGKA 181620Z 34011KT 9999 FEW035 18/16 Q1011 NNW (340°) 12.7mph 18°C 16°C
18/06/19 16:50 EGKA 181550Z 36010KT 9999 FEW035 17/16 Q1011 RESHRA N (360°) 11.5mph 17°C 16°C
18/06/19 15:50 EGKA 181450Z 36006KT 7000 SHRA FEW010 SCT020 18/14 Q1012 SHRA N (360°) 6.9mph 18°C 14°C
18/06/19 15:20 EGKA 181420Z 02008KT 9999 FEW049 19/14 Q1012 NNE (20°) 9.2mph 19°C 14°C
18/06/19 14:20 EGKA 181320Z 02007KT 9999 -SHRA FEW045 19/14 Q1012 -SHRA NNE (20°) 8.1mph 19°C 14°C
18/06/19 13:50 EGKA 181250Z 03007KT CAVOK 19/14 Q1012 NNE (30°) 8.1mph 19°C 14°C